PAWGPAPG

Guest
Details From PAWG - WRANGELL
To PAPG - PETERSBURG JAMES A JOHNSON
Flight Number -
Tags generated
Created
Modified
Stats Distance 28 nm / 52 km
Max Altitude 800 ft / 244 m
Waypoints 3
Social Downloads 1
Likes 0
Share VATSIM

Download

Looking for another format? Having issues loading an existing format? Contact us
Advertisement - Login to hide

Notes

Basic altitude profile: - Ascent Rate: 2500ft/min - Ascent Speed: 250kts - Cruise Altitude: 35000ft - Cruise Speed: 420kts - Descent Rate: 1500ft/min - Descent Speed: 250kts Options: - Use NATs: yes - Use PACOTS: yes - Use low airways: yes - Use high airways: yes

Route

PAWG FPN PAPG

ID Type Via Altitude Latitude Longitude Leg Dist Tot Dist Heading (true) Name
O PAWG APT - 0 ft / 0 m 56.48432˚ -132.36983˚ - 0 nm - WRANGELL
FPN NDB - 800 ft / 244 m 56.79225˚ -132.82097˚ 23 nm 23 nm 321° / 321° FREDERICKS POINT NDB
O PAPG APT - 0 ft / 0 m 56.80165˚ -132.94529˚ 4 nm 27 nm 278° / 278° PETERSBURG JAMES A JOHNSON

Altitude Profile

Advertisement - Login to hide

PAWG

Details ICAO PAWG (WRG)
Name WRANGELL
Region USA (Alaska)
Timezone America/Juneau (UTC-8.0)
Stats Elevation 44 ft / 13 m (AMSL)
Location 56.484324° -132.369832°
Runways 1
Magnetic Variation 18.696° E

METAR

PAWG 241556Z 10005KT 10SM FEW004 SCT050 08/06 A3002

Decode

TAF

TAF PAWG 241123Z 2412/2512 VRB03KT P6SM BKN050 FM241400 VRB03KT P6SM VCFG SCT005 FM241900 12006KT P6SM VCSH SCT035 BKN080 AMD LTD TO CLD VIS AND WIND 2412/2415

Decode

Departure Runways

ID Width Length Bearing (true) Bearing (mag) Surface Threshold Offset Overrun Length
10 150 ft / 46 m 5,983 ft / 1,824 m 121.43° 102.73° Asphalt 0 ft / 0 m 0 ft / 0 m
28 150 ft / 46 m 5,983 ft / 1,824 m 301.45° 282.75° Asphalt 0 ft / 0 m 0 ft / 0 m

PAPG

Details ICAO PAPG (PSG)
Name PETERSBURG JAMES A JOHNSON
Region USA (Alaska)
Timezone America/Juneau (UTC-8.0)
Stats Elevation 105 ft / 32 m (AMSL)
Location 56.801651° -132.945289°
Runways 1
Magnetic Variation 18.750° E

METAR

PAPG 241607Z 00000KT 10SM SCT005 OVC050 07/06 A3001 RMK AO2

Decode

TAF

PAPG 241123Z 2412/2512 22004KT P6SM VCFG FEW005 BKN050 TEMPO 2414/2418 5SM BR OVC006 FM241800 07005KT P6SM VCSH SCT025 BKN050 FM250900 12005KT P6SM VCSH SCT025 OVC050 AMD LTD TO CLD VIS AND WIND 2412/2415

Decode

Destination Runways

ID Width Length Bearing (true) Bearing (mag) Surface Threshold Offset Overrun Length
04 150 ft / 46 m 5,982 ft / 1,823 m 70.70° 51.95° Asphalt 0 ft / 0 m 0 ft / 0 m
22 150 ft / 46 m 5,982 ft / 1,823 m 250.73° 231.98° Asphalt 0 ft / 0 m 0 ft / 0 m

Approach Navaids

Runway Type Ident Frequency Range Bearing (true) Bearing (mag) Slope Elevation
22 Localiser IPSG 110.50 MHz 18 nm / 33 km 185.00° 166.25° - 151 ft / 46 m (AMSL)
22 DME IPSG 110.50 MHz 18 nm / 33 km - - - 164 ft / 50 m (AMSL)

Popular Alternatives